createdAt,value
2019-02-11T00:01:35.880Z,2.10
2019-02-11T00:04:04.789Z,2.10
2019-02-11T00:06:33.501Z,2.10
2019-02-11T00:09:03.435Z,2.20
2019-02-11T00:11:33.643Z,2.20
2019-02-11T00:14:03.581Z,2.20
2019-02-11T00:16:36.257Z,2.20
2019-02-11T00:19:04.941Z,2.20
2019-02-11T00:21:33.625Z,2.20
2019-02-11T00:24:02.251Z,2.20
2019-02-11T00:26:30.837Z,2.20
2019-02-11T00:28:59.502Z,2.20
2019-02-11T00:31:28.215Z,2.20
2019-02-11T00:33:57.029Z,2.20
2019-02-11T00:36:25.633Z,2.20
2019-02-11T00:38:54.261Z,2.20
2019-02-11T00:41:24.833Z,2.10
2019-02-11T00:43:54.291Z,2.10
2019-02-11T00:46:22.949Z,2.10
2019-02-11T00:48:51.583Z,2.10
2019-02-11T00:51:20.250Z,2.20
2019-02-11T00:53:50.827Z,2.20
2019-02-11T00:56:19.235Z,2.20
2019-02-11T00:58:47.992Z,2.20
2019-02-11T01:01:18.391Z,2.10
2019-02-11T01:03:46.958Z,2.10
2019-02-11T01:06:15.622Z,2.10
2019-02-11T01:08:44.190Z,2.10
2019-02-11T01:11:13.031Z,2.20
2019-02-11T01:13:41.631Z,2.20
2019-02-11T01:16:10.278Z,2.20
2019-02-11T01:18:39.368Z,2.20
2019-02-11T01:21:07.964Z,2.10
2019-02-11T01:23:36.599Z,2.10
2019-02-11T01:26:05.298Z,2.10
2019-02-11T01:28:33.901Z,2.10
2019-02-11T01:31:02.532Z,2.10
2019-02-11T01:33:31.234Z,2.10
2019-02-11T01:35:59.971Z,2.20
2019-02-11T01:38:28.598Z,2.20
2019-02-11T01:40:57.236Z,2.20
2019-02-11T01:43:25.895Z,2.10
2019-02-11T01:45:54.518Z,2.20
2019-02-11T01:48:23.156Z,2.20
2019-02-11T01:50:51.788Z,2.20
2019-02-11T01:53:20.496Z,2.20
2019-02-11T01:55:49.115Z,2.20
2019-02-11T01:58:17.918Z,2.20
2019-02-11T02:00:46.552Z,2.20
2019-02-11T02:03:16.612Z,2.30
2019-02-11T02:05:45.292Z,2.20
2019-02-11T02:08:14.407Z,2.30
2019-02-11T02:10:43.060Z,2.20
2019-02-11T02:13:11.743Z,2.30
2019-02-11T02:15:40.611Z,2.30
2019-02-11T02:18:09.318Z,2.40
2019-02-11T02:20:37.994Z,2.40
2019-02-11T02:23:06.712Z,2.40
2019-02-11T02:25:35.348Z,2.50
2019-02-11T02:28:04.092Z,2.50
2019-02-11T02:30:32.727Z,2.50
2019-02-11T02:33:01.292Z,2.50
2019-02-11T02:35:30.109Z,2.50
2019-02-11T02:37:58.736Z,2.50
2019-02-11T02:40:27.305Z,2.50
2019-02-11T02:42:56.038Z,2.50
2019-02-11T02:45:24.740Z,2.50
2019-02-11T02:47:53.379Z,2.60
2019-02-11T02:50:22.109Z,2.60
2019-02-11T02:52:50.683Z,2.60
2019-02-11T02:55:19.374Z,2.60
2019-02-11T02:57:48.045Z,2.60
2019-02-11T03:00:17.033Z,2.60
2019-02-11T03:02:45.674Z,2.60
2019-02-11T03:05:14.330Z,2.60
2019-02-11T03:07:42.901Z,2.60
2019-02-11T03:10:11.889Z,2.60
2019-02-11T03:12:40.546Z,2.60
2019-02-11T03:15:11.254Z,2.70
2019-02-11T03:17:39.881Z,2.70
2019-02-11T03:20:09.826Z,2.70
2019-02-11T03:22:38.455Z,2.70
2019-02-11T03:25:09.542Z,2.80
2019-02-11T03:27:38.207Z,2.80
2019-02-11T03:30:11.510Z,2.80
2019-02-11T03:32:40.153Z,2.80
2019-02-11T03:35:08.972Z,2.80
2019-02-11T03:37:37.702Z,2.80
2019-02-11T03:40:08.805Z,2.80
2019-02-11T03:42:37.633Z,2.80
2019-02-11T03:45:10.914Z,2.90
2019-02-11T03:47:39.486Z,2.90
2019-02-11T03:50:10.003Z,2.90
2019-02-11T03:52:38.709Z,2.90
2019-02-11T03:55:11.176Z,2.90
2019-02-11T03:57:40.309Z,2.90
2019-02-11T04:00:19.192Z,2.90
2019-02-11T04:02:47.846Z,3.00
2019-02-11T04:05:16.483Z,3.00
2019-02-11T04:07:45.186Z,3.00
2019-02-11T04:10:13.853Z,3.00
2019-02-11T04:12:42.856Z,3.00
2019-02-11T04:15:12.169Z,3.00
2019-02-11T04:17:40.836Z,3.00
2019-02-11T04:20:09.659Z,3.00
2019-02-11T04:22:38.288Z,3.00
2019-02-11T04:25:07.655Z,3.00
2019-02-11T04:27:36.209Z,3.00
2019-02-11T04:30:07.450Z,3.00
2019-02-11T04:32:37.173Z,3.10
2019-02-11T04:35:06.896Z,3.10
2019-02-11T04:37:37.070Z,3.10
2019-02-11T04:40:10.271Z,3.10
2019-02-11T04:42:39.000Z,3.10
2019-02-11T04:45:09.836Z,3.10
2019-02-11T04:47:38.639Z,3.10
2019-02-11T04:50:09.447Z,3.10
2019-02-11T04:52:38.382Z,3.10
2019-02-11T04:55:14.770Z,3.10
2019-02-11T04:57:44.879Z,3.10
2019-02-11T05:00:15.242Z,3.10
2019-02-11T05:02:43.919Z,3.10
2019-02-11T05:05:12.618Z,3.10
2019-02-11T05:07:41.256Z,3.20
2019-02-11T05:10:12.533Z,3.20
2019-02-11T05:12:41.168Z,3.20
2019-02-11T05:15:13.582Z,3.20
2019-02-11T05:17:42.320Z,3.20
2019-02-11T05:20:12.540Z,3.20
2019-02-11T05:22:41.178Z,3.30
2019-02-11T05:25:10.008Z,3.30
2019-02-11T05:27:38.851Z,3.30
2019-02-11T05:30:10.498Z,3.30
2019-02-11T05:32:39.269Z,3.30
2019-02-11T05:35:08.557Z,3.40
2019-02-11T05:37:37.183Z,3.30
2019-02-11T05:40:09.128Z,3.30
2019-02-11T05:42:38.316Z,3.30
2019-02-11T05:45:08.516Z,3.20
2019-02-11T05:47:37.260Z,3.20
2019-02-11T05:50:09.082Z,3.10
2019-02-11T05:52:37.674Z,3.10
2019-02-11T05:55:07.722Z,3.00
2019-02-11T05:57:36.534Z,3.00
2019-02-11T06:00:10.632Z,3.00
2019-02-11T06:02:41.937Z,3.00
2019-02-11T06:05:11.658Z,3.00
2019-02-11T06:07:41.753Z,3.00
2019-02-11T06:10:11.203Z,3.00
2019-02-11T06:12:41.398Z,3.10
2019-02-11T06:15:10.112Z,3.10
2019-02-11T06:17:38.758Z,3.10
2019-02-11T06:20:09.224Z,3.10
2019-02-11T06:22:37.933Z,3.10
2019-02-11T06:25:08.290Z,3.20
2019-02-11T06:27:39.254Z,3.20
2019-02-11T06:30:11.165Z,3.20
2019-02-11T06:32:39.871Z,3.20
2019-02-11T06:35:09.328Z,3.20
2019-02-11T06:37:37.915Z,3.20
2019-02-11T06:40:11.124Z,3.20
2019-02-11T06:42:39.866Z,3.20
2019-02-11T06:45:13.645Z,3.20
2019-02-11T06:47:42.413Z,3.10
2019-02-11T06:50:13.731Z,3.10
2019-02-11T06:52:42.431Z,3.10
2019-02-11T06:55:12.205Z,3.10
2019-02-11T06:57:41.195Z,3.10
2019-02-11T07:00:12.759Z,3.00
2019-02-11T07:02:41.688Z,3.00
2019-02-11T07:05:10.479Z,3.00
2019-02-11T07:07:39.121Z,3.00
2019-02-11T07:10:12.031Z,3.00
2019-02-11T07:12:40.829Z,3.00
2019-02-11T07:15:21.605Z,3.00
2019-02-11T07:17:44.343Z,3.00
2019-02-11T07:20:20.273Z,3.00
2019-02-11T07:22:50.511Z,3.00
2019-02-11T07:25:20.858Z,3.00
2019-02-11T07:27:49.508Z,3.00
2019-02-11T07:30:18.549Z,3.00
2019-02-11T07:32:47.285Z,3.10
2019-02-11T07:35:16.270Z,3.20
2019-02-11T07:37:45.079Z,3.20
2019-02-11T07:40:15.431Z,3.20
2019-02-11T07:43:00.182Z,3.20
2019-02-11T07:45:30.724Z,3.20
2019-02-11T07:47:59.505Z,3.20
2019-02-11T07:50:28.368Z,3.30
2019-02-11T07:52:57.353Z,3.30
2019-02-11T07:55:26.186Z,3.30
2019-02-11T07:57:54.920Z,3.40
2019-02-11T08:00:26.436Z,3.40
2019-02-11T08:02:55.000Z,3.40
2019-02-11T08:05:24.010Z,3.40
2019-02-11T08:07:52.770Z,3.50
2019-02-11T08:10:24.350Z,3.60
2019-02-11T08:12:53.269Z,3.70
2019-02-11T08:15:21.831Z,3.80
2019-02-11T08:17:50.413Z,3.80
2019-02-11T08:20:19.493Z,3.90
2019-02-11T08:22:49.599Z,3.90
2019-02-11T08:25:19.871Z,3.90
2019-02-11T08:27:48.736Z,3.90
2019-02-11T08:30:19.707Z,3.90
2019-02-11T08:32:48.626Z,3.80
2019-02-11T08:35:21.088Z,3.80
2019-02-11T08:37:50.936Z,3.70
2019-02-11T08:40:19.875Z,3.70
2019-02-11T08:42:50.655Z,3.60
2019-02-11T08:45:19.626Z,3.60
2019-02-11T08:47:50.932Z,3.60
2019-02-11T08:50:19.776Z,3.60
2019-02-11T08:52:49.342Z,3.50
2019-02-11T08:55:19.488Z,3.50
2019-02-11T08:57:48.302Z,3.40
2019-02-11T09:00:19.401Z,3.40
2019-02-11T09:02:49.680Z,3.40
2019-02-11T09:05:18.354Z,3.40
2019-02-11T09:07:47.196Z,3.30
2019-02-11T09:10:15.878Z,3.30
2019-02-11T09:12:44.826Z,3.30
2019-02-11T09:15:17.154Z,3.30
2019-02-11T09:17:45.803Z,3.30
2019-02-11T09:20:15.630Z,3.30
2019-02-11T09:22:44.371Z,3.30
2019-02-11T09:25:13.171Z,3.30
2019-02-11T09:27:41.785Z,3.30
2019-02-11T09:30:17.751Z,3.40
2019-02-11T09:32:46.517Z,3.40
2019-02-11T09:35:18.200Z,3.40
2019-02-11T09:37:47.197Z,3.40
2019-02-11T09:40:16.628Z,3.40
2019-02-11T09:42:45.728Z,3.40
2019-02-11T09:45:22.747Z,3.40
2019-02-11T09:47:51.448Z,3.40
2019-02-11T09:50:29.112Z,3.50
2019-02-11T09:52:57.891Z,3.50
2019-02-11T09:55:34.276Z,3.50
2019-02-11T09:58:03.579Z,3.50
2019-02-11T10:00:32.633Z,3.50
2019-02-11T10:03:04.093Z,3.40
2019-02-11T10:05:38.848Z,3.40
2019-02-11T10:08:14.643Z,3.50
2019-02-11T10:10:43.488Z,3.50
2019-02-11T10:13:12.185Z,3.50
2019-02-11T10:15:40.868Z,3.50
2019-02-11T10:18:09.801Z,3.50
2019-02-11T10:20:38.553Z,3.60
2019-02-11T10:23:07.289Z,3.60
2019-02-11T10:25:35.862Z,3.60
2019-02-11T10:28:07.969Z,3.70
2019-02-11T10:30:37.319Z,4.40
2019-02-11T10:33:25.253Z,5.00
2019-02-11T10:35:56.810Z,5.20
2019-02-11T10:38:27.816Z,5.30
2019-02-11T10:41:00.465Z,5.30
2019-02-11T10:43:29.077Z,5.30
2019-02-11T10:45:57.807Z,5.20
2019-02-11T10:48:26.389Z,5.20
2019-02-11T10:50:55.226Z,5.30
2019-02-11T10:53:27.898Z,5.20
2019-02-11T10:55:57.770Z,5.10
2019-02-11T10:58:29.228Z,5.10
2019-02-11T11:00:59.388Z,5.10
2019-02-11T11:03:28.143Z,5.30
2019-02-11T11:05:57.156Z,5.30
2019-02-11T11:08:25.860Z,5.30
2019-02-11T11:10:54.684Z,5.20
2019-02-11T11:13:27.848Z,5.10
2019-02-11T11:15:59.477Z,4.90
2019-02-11T11:18:28.246Z,4.90
2019-02-11T11:20:56.873Z,4.90
2019-02-11T11:23:25.715Z,4.80
2019-02-11T11:25:54.750Z,4.80
2019-02-11T11:28:26.292Z,4.90
2019-02-11T11:30:55.067Z,5.00
2019-02-11T11:33:26.177Z,5.10
2019-02-11T11:35:54.844Z,5.20
2019-02-11T11:38:27.256Z,5.70
2019-02-11T11:40:55.976Z,6.10
2019-02-11T11:43:24.930Z,6.10
2019-02-11T11:45:53.742Z,6.50
2019-02-11T11:48:22.384Z,7.00
2019-02-11T11:50:57.090Z,7.40
2019-02-11T11:53:26.034Z,7.90
2019-02-11T11:55:56.269Z,8.30
2019-02-11T11:58:26.994Z,8.30
2019-02-11T12:00:56.882Z,8.50
2019-02-11T12:03:25.602Z,8.60
2019-02-11T12:05:55.883Z,9.00
2019-02-11T12:08:33.897Z,9.50
2019-02-11T12:11:03.249Z,9.70
2019-02-11T12:13:34.739Z,10.00
2019-02-11T12:16:06.022Z,9.90
2019-02-11T12:18:37.643Z,10.30
2019-02-11T12:21:06.522Z,10.40
2019-02-11T12:23:36.853Z,9.90
2019-02-11T12:26:07.635Z,9.10
2019-02-11T12:28:36.293Z,8.50
2019-02-11T12:31:05.079Z,7.90
2019-02-11T12:33:33.672Z,7.40
2019-02-11T12:36:02.421Z,6.90
2019-02-11T12:38:32.594Z,6.60
2019-02-11T12:41:02.305Z,6.70
2019-02-11T12:43:38.694Z,6.70
2019-02-11T12:46:07.573Z,6.40
2019-02-11T12:48:38.464Z,6.10
2019-02-11T12:51:08.597Z,5.80
2019-02-11T12:53:37.242Z,5.70
2019-02-11T12:56:06.252Z,5.60
2019-02-11T12:58:37.705Z,5.50
2019-02-11T13:01:08.636Z,5.50
2019-02-11T13:03:37.331Z,5.40
2019-02-11T13:06:06.014Z,5.30
2019-02-11T13:08:36.802Z,5.20
2019-02-11T13:11:05.597Z,5.00
2019-02-11T13:13:35.799Z,4.90
2019-02-11T13:16:04.660Z,4.90
2019-02-11T13:18:34.243Z,4.90
2019-02-11T13:21:06.594Z,4.90
2019-02-11T13:23:35.633Z,5.00
2019-02-11T13:26:04.328Z,5.10
2019-02-11T13:28:34.931Z,5.30
2019-02-11T13:31:05.176Z,6.10
2019-02-11T13:33:33.812Z,6.80
2019-02-11T13:36:02.804Z,7.70
2019-02-11T13:38:33.286Z,8.90
2019-02-11T13:41:01.983Z,9.30
2019-02-11T13:43:33.846Z,9.60
2019-02-11T13:46:02.627Z,9.40
2019-02-11T13:48:33.949Z,8.80
2019-02-11T13:51:08.596Z,7.90
2019-02-11T13:53:43.618Z,7.20
2019-02-11T13:56:10.502Z,6.40
2019-02-11T13:58:40.489Z,5.60
2019-02-11T14:01:12.651Z,5.10
2019-02-11T14:03:41.457Z,4.80
2019-02-11T14:06:11.724Z,4.80
2019-02-11T14:08:43.381Z,4.80
2019-02-11T14:11:23.137Z,4.70
2019-02-11T14:14:01.159Z,4.60
2019-02-11T14:16:24.303Z,4.80
2019-02-11T14:18:53.024Z,5.30
2019-02-11T14:21:24.816Z,5.70
2019-02-11T14:23:54.437Z,6.00
2019-02-11T14:26:27.746Z,6.20
2019-02-11T14:28:57.240Z,6.40
2019-02-11T14:31:30.501Z,6.60
2019-02-11T14:33:58.320Z,6.70
2019-02-11T14:36:28.655Z,6.70
2019-02-11T14:38:58.316Z,6.80
2019-02-11T14:41:28.473Z,6.90
2019-02-11T14:43:57.171Z,6.80
2019-02-11T14:46:28.942Z,6.50
2019-02-11T14:48:59.255Z,6.20
2019-02-11T14:51:27.815Z,6.00
2019-02-11T14:53:56.881Z,5.90
2019-02-11T14:56:29.149Z,5.80
2019-02-11T14:58:57.808Z,5.80
2019-02-11T15:01:27.030Z,5.90
2019-02-11T15:03:55.952Z,5.90
2019-02-11T15:06:24.614Z,5.90
2019-02-11T15:08:55.171Z,5.80
2019-02-11T15:11:28.612Z,5.80
2019-02-11T15:13:58.821Z,5.70
2019-02-11T15:16:30.277Z,5.70
2019-02-11T15:19:04.391Z,5.50
2019-02-11T15:21:40.159Z,5.50
2019-02-11T15:24:11.384Z,5.30
2019-02-11T15:26:45.156Z,5.30
2019-02-11T15:29:15.658Z,5.20
2019-02-11T15:31:44.381Z,5.20
2019-02-11T15:34:15.030Z,5.20
2019-02-11T15:36:44.220Z,5.10
2019-02-11T15:39:16.213Z,5.00
2019-02-11T15:41:47.768Z,4.90
2019-02-11T15:44:16.581Z,4.90
2019-02-11T15:46:45.423Z,4.90
2019-02-11T15:49:15.145Z,5.00
2019-02-11T15:51:44.503Z,4.90
2019-02-11T15:54:18.897Z,5.00
2019-02-11T15:56:47.621Z,5.00
2019-02-11T15:59:20.795Z,5.00
2019-02-11T16:01:52.434Z,5.00
2019-02-11T16:04:24.091Z,4.90
2019-02-11T16:06:53.025Z,4.90
2019-02-11T16:09:22.123Z,4.90
2019-02-11T16:11:50.869Z,4.90
2019-02-11T16:14:19.659Z,5.00
2019-02-11T16:16:48.325Z,4.90
2019-02-11T16:19:17.094Z,4.80
2019-02-11T16:21:47.689Z,4.70
2019-02-11T16:24:17.387Z,4.60
2019-02-11T16:26:46.087Z,4.50
2019-02-11T16:29:14.795Z,4.40
2019-02-11T16:31:43.510Z,4.40
2019-02-11T16:34:12.435Z,4.40
2019-02-11T16:36:43.750Z,4.40
2019-02-11T16:39:12.461Z,4.40
2019-02-11T16:41:42.118Z,4.40
2019-02-11T16:44:13.405Z,4.40
2019-02-11T16:46:44.883Z,4.40
2019-02-11T16:49:16.637Z,4.40
2019-02-11T16:51:53.713Z,4.40
2019-02-11T16:54:22.407Z,4.30
2019-02-11T16:56:51.073Z,4.20
2019-02-11T16:59:20.095Z,4.20
2019-02-11T17:01:50.271Z,4.20
2019-02-11T17:04:19.236Z,4.20
2019-02-11T17:06:47.919Z,4.20
2019-02-11T17:09:16.770Z,4.20
2019-02-11T17:11:45.604Z,4.20
2019-02-11T17:14:17.206Z,4.20
2019-02-11T17:16:46.137Z,4.20
2019-02-11T17:19:14.857Z,4.20
2019-02-11T17:21:43.521Z,4.20
2019-02-11T17:24:14.998Z,4.20
2019-02-11T17:26:44.116Z,4.10
2019-02-11T17:29:13.650Z,4.00
2019-02-11T17:31:42.364Z,3.90
2019-02-11T17:34:11.184Z,3.90
2019-02-11T17:36:40.070Z,3.80
2019-02-11T17:39:12.656Z,3.70
2019-02-11T17:41:45.540Z,3.70
2019-02-11T17:44:14.204Z,3.60
2019-02-11T17:46:43.262Z,3.50
2019-02-11T17:49:17.702Z,3.40
2019-02-11T17:51:50.133Z,3.30
2019-02-11T17:54:18.884Z,3.30
2019-02-11T17:56:54.977Z,3.30
2019-02-11T17:59:24.968Z,3.20
2019-02-11T18:01:55.353Z,3.30
2019-02-11T18:04:25.730Z,3.30
2019-02-11T18:06:54.874Z,3.30
2019-02-11T18:09:31.782Z,3.30
2019-02-11T18:12:00.374Z,3.40
2019-02-11T18:14:30.665Z,3.40
2019-02-11T18:16:59.313Z,3.40
2019-02-11T18:19:31.818Z,3.40
2019-02-11T18:22:00.842Z,3.30
2019-02-11T18:24:29.707Z,3.30
2019-02-11T18:26:58.753Z,3.20
2019-02-11T18:29:27.391Z,3.20
2019-02-11T18:31:56.337Z,3.10
2019-02-11T18:34:25.731Z,3.10
2019-02-11T18:36:54.847Z,3.00
2019-02-11T18:39:36.938Z,3.00
2019-02-11T18:42:05.744Z,3.00
2019-02-11T18:44:36.009Z,3.00
2019-02-11T18:47:09.297Z,2.90
2019-02-11T18:49:54.053Z,2.90
2019-02-11T18:52:23.095Z,2.90
2019-02-11T18:54:56.326Z,2.90
2019-02-11T18:57:31.361Z,2.90
2019-02-11T19:00:01.856Z,2.90
2019-02-11T19:02:38.655Z,2.80
2019-02-11T19:05:11.480Z,2.80
2019-02-11T19:07:43.729Z,2.80
2019-02-11T19:10:17.605Z,2.80
2019-02-11T19:12:47.527Z,2.80
2019-02-11T19:15:23.338Z,2.80
2019-02-11T19:17:59.694Z,2.70
2019-02-11T19:20:31.305Z,2.70
2019-02-11T19:23:05.915Z,2.60
2019-02-11T19:25:34.730Z,2.60
2019-02-11T19:28:09.782Z,2.60
2019-02-11T19:30:38.856Z,2.60
2019-02-11T19:33:11.278Z,2.70
2019-02-11T19:35:42.407Z,2.70
2019-02-11T19:38:12.861Z,2.70
2019-02-11T19:40:41.515Z,2.70
2019-02-11T19:43:12.075Z,2.80
2019-02-11T19:45:43.518Z,2.80
2019-02-11T19:48:13.807Z,2.80
2019-02-11T19:50:45.547Z,2.80
2019-02-11T19:53:14.299Z,2.90
2019-02-11T19:55:50.888Z,2.90
2019-02-11T19:58:26.553Z,2.90
2019-02-11T20:00:57.622Z,2.90
2019-02-11T20:03:27.101Z,2.90
2019-02-11T20:05:57.373Z,2.80
2019-02-11T20:08:26.205Z,2.90
2019-02-11T20:10:56.370Z,2.90
2019-02-11T20:13:28.348Z,2.90
2019-02-11T20:15:57.283Z,2.90
2019-02-11T20:18:35.615Z,2.90
2019-02-11T20:21:09.111Z,2.90
2019-02-11T20:23:42.714Z,2.90
2019-02-11T20:26:11.523Z,2.90
2019-02-11T20:28:48.175Z,2.90
2019-02-11T20:31:14.339Z,2.90
2019-02-11T20:33:43.379Z,2.80
2019-02-11T20:36:14.069Z,2.80
2019-02-11T20:38:49.190Z,2.80
2019-02-11T20:41:23.135Z,2.80
2019-02-11T20:43:54.906Z,2.80
2019-02-11T20:46:25.160Z,2.80
2019-02-11T20:48:56.529Z,2.70
2019-02-11T20:51:25.219Z,2.70
2019-02-11T20:53:55.779Z,2.80
2019-02-11T20:56:28.588Z,2.70
2019-02-11T20:58:57.346Z,2.70
2019-02-11T21:01:27.515Z,2.70
2019-02-11T21:03:58.586Z,2.80
2019-02-11T21:06:32.174Z,2.80
2019-02-11T21:09:02.153Z,2.80
2019-02-11T21:11:32.643Z,2.80
2019-02-11T21:14:01.348Z,2.80
2019-02-11T21:16:33.691Z,2.80
2019-02-11T21:19:03.177Z,2.80
2019-02-11T21:21:32.029Z,2.80
2019-02-11T21:24:03.794Z,2.80
2019-02-11T21:26:35.635Z,2.90
2019-02-11T21:29:04.346Z,2.90
2019-02-11T21:31:38.126Z,2.80
2019-02-11T21:34:10.187Z,2.80
2019-02-11T21:36:40.446Z,2.90
2019-02-11T21:39:13.741Z,2.90
2019-02-11T21:41:44.909Z,2.90
2019-02-11T21:44:14.673Z,2.90
2019-02-11T21:46:46.332Z,2.90
2019-02-11T21:49:15.262Z,2.90
2019-02-11T21:51:53.066Z,2.90
2019-02-11T21:54:25.206Z,2.90
2019-02-11T21:56:55.840Z,2.90
2019-02-11T21:59:24.632Z,2.90
2019-02-11T22:04:18.214Z,2.90
2019-02-11T22:06:51.157Z,2.90
2019-02-11T22:09:21.276Z,2.90
2019-02-11T22:11:51.545Z,2.90
2019-02-11T22:14:20.830Z,2.90
2019-02-11T22:16:50.476Z,2.80
2019-02-11T22:19:20.271Z,2.80
2019-02-11T22:21:51.633Z,2.80
2019-02-11T22:24:25.310Z,2.80
2019-02-11T22:26:54.263Z,2.80
2019-02-11T22:29:31.174Z,2.80
2019-02-11T22:32:01.156Z,2.80
2019-02-11T22:34:30.102Z,2.80
2019-02-11T22:36:59.292Z,2.80
2019-02-11T22:39:29.629Z,2.80
2019-02-11T22:41:58.290Z,2.80
2019-02-11T22:44:27.908Z,2.80
2019-02-11T22:47:03.208Z,2.80
2019-02-11T22:49:32.116Z,2.70
2019-02-11T22:52:01.462Z,2.70
2019-02-11T22:54:31.835Z,2.70
2019-02-11T22:57:02.461Z,2.70
2019-02-11T22:59:33.087Z,2.70
2019-02-11T23:02:04.454Z,2.70
2019-02-11T23:04:33.924Z,2.80
2019-02-11T23:07:04.212Z,2.80
2019-02-11T23:09:33.279Z,2.70
2019-02-11T23:12:04.184Z,2.80
2019-02-11T23:14:35.472Z,2.80
2019-02-11T23:17:05.727Z,2.80
2019-02-11T23:19:34.611Z,2.80
2019-02-11T23:22:04.157Z,2.70
2019-02-11T23:24:32.975Z,2.70
2019-02-11T23:27:03.406Z,2.70
2019-02-11T23:29:37.852Z,2.70
2019-02-11T23:32:08.631Z,2.70
2019-02-11T23:34:37.202Z,2.70
2019-02-11T23:37:05.936Z,2.70
2019-02-11T23:39:34.571Z,2.70
2019-02-11T23:42:03.283Z,2.70
2019-02-11T23:44:32.195Z,2.70
2019-02-11T23:47:02.801Z,2.70
2019-02-11T23:49:31.291Z,2.70
2019-02-11T23:51:59.954Z,2.70
2019-02-11T23:54:28.585Z,2.80
2019-02-11T23:56:57.348Z,2.70
2019-02-11T23:59:26.299Z,2.70
